createdAt,value
2022-08-28T00:04:00.693Z,101353.31
2022-08-28T00:08:02.332Z,101349.94
2022-08-28T00:12:05.295Z,101356.06
2022-08-28T00:16:07.157Z,101370.81
2022-08-28T00:20:11.202Z,101362.56
2022-08-28T00:24:12.887Z,101365.97
2022-08-28T00:28:24.369Z,101366.34
2022-08-28T00:32:27.004Z,101362.59
2022-08-28T00:36:30.123Z,101358.41
2022-08-28T00:40:33.112Z,101360.59
2022-08-28T00:44:36.724Z,101357.97
2022-08-28T00:48:38.336Z,101357.78
2022-08-28T00:52:40.466Z,101355.84
2022-08-28T00:56:42.727Z,101359.53
2022-08-28T01:00:44.240Z,101356.16
2022-08-28T01:04:45.931Z,101359.28
2022-08-28T01:08:50.447Z,101357.88
2022-08-28T01:12:56.166Z,101359.72
2022-08-28T01:16:58.334Z,101363.41
2022-08-28T01:21:20.118Z,101359.81
2022-08-28T01:25:24.635Z,101365.81
2022-08-28T01:29:28.976Z,101362.50
2022-08-28T01:33:30.469Z,101364.19
2022-08-28T01:37:32.147Z,101358.94
2022-08-28T01:41:34.747Z,101361.28
2022-08-28T01:45:39.162Z,101361.34
2022-08-28T01:49:40.638Z,101367.81
2022-08-28T01:53:43.349Z,101371.84
2022-08-28T01:57:51.425Z,101373.69
2022-08-28T02:01:53.623Z,101373.69
2022-08-28T02:05:55.164Z,101372.97
2022-08-28T02:09:56.641Z,101368.38
2022-08-28T02:13:59.107Z,101371.25
2022-08-28T02:18:01.889Z,101370.38
2022-08-28T02:22:08.134Z,101367.75
2022-08-28T02:26:11.156Z,101366.78
2022-08-28T02:30:14.592Z,101371.50
2022-08-28T02:34:16.139Z,101356.41
2022-08-28T02:38:17.929Z,101356.94
2022-08-28T02:42:20.391Z,101356.56
2022-08-28T02:46:21.956Z,101362.34
2022-08-28T02:50:24.101Z,101358.66
2022-08-28T02:54:29.431Z,101350.34
2022-08-28T02:58:32.599Z,101345.19
2022-08-28T03:02:34.473Z,101355.59
2022-08-28T03:06:36.177Z,101345.53
2022-08-28T03:10:37.687Z,101354.19
2022-08-28T03:14:39.908Z,101348.88
2022-08-28T03:18:41.418Z,101357.09
2022-08-28T03:23:02.015Z,101357.78
2022-08-28T03:27:04.879Z,101355.78
2022-08-28T03:31:08.761Z,101359.81
2022-08-28T03:35:11.987Z,101359.38
2022-08-28T03:39:13.882Z,101354.81
2022-08-28T03:43:19.551Z,101342.84
2022-08-28T03:47:21.027Z,101356.13
2022-08-28T03:51:29.727Z,101361.88
2022-08-28T03:55:31.438Z,101353.38
2022-08-28T03:59:33.574Z,101354.63
2022-08-28T04:03:36.150Z,101348.56
2022-08-28T04:07:37.760Z,101357.28
2022-08-28T04:11:42.947Z,101363.03
2022-08-28T04:15:44.867Z,101363.09
2022-08-28T04:19:46.364Z,101362.31
2022-08-28T04:23:48.227Z,101374.72
2022-08-28T04:27:51.254Z,101367.00
2022-08-28T04:31:53.095Z,101376.59
2022-08-28T04:35:55.544Z,101374.28
2022-08-28T04:39:57.139Z,101374.31
2022-08-28T04:43:59.012Z,101374.59
2022-08-28T04:48:00.469Z,101376.50
2022-08-28T04:52:07.028Z,101379.75
2022-08-28T04:56:11.178Z,101378.19
2022-08-28T05:00:12.979Z,101381.84
2022-08-28T05:04:14.446Z,101385.91
2022-08-28T05:08:18.041Z,101386.69
2022-08-28T05:12:19.850Z,101391.78
2022-08-28T05:16:22.455Z,101391.19
2022-08-28T05:20:23.959Z,101398.47
2022-08-28T05:24:25.515Z,101393.19
2022-08-28T05:28:27.157Z,101403.06
2022-08-28T05:32:28.654Z,101396.16
2022-08-28T05:36:34.557Z,101395.38
2022-08-28T05:40:43.309Z,101403.69
2022-08-28T05:44:44.781Z,101406.31
2022-08-28T05:48:48.568Z,101413.38
2022-08-28T05:52:50.327Z,101411.97
2022-08-28T05:56:51.858Z,101410.06
2022-08-28T06:00:53.451Z,101417.00
2022-08-28T06:04:54.933Z,101421.22
2022-08-28T06:09:24.293Z,101420.75
2022-08-28T06:13:29.777Z,101425.84
2022-08-28T06:17:31.233Z,101421.63
2022-08-28T06:21:33.491Z,101427.50
2022-08-28T06:25:46.764Z,101429.97
2022-08-28T06:29:48.469Z,101426.00
2022-08-28T06:33:49.988Z,101426.47
2022-08-28T06:37:51.433Z,101430.44
2022-08-28T06:41:53.672Z,101424.22
2022-08-28T06:45:57.595Z,101433.41
2022-08-28T06:49:59.182Z,101434.84
2022-08-28T06:54:01.301Z,101441.19
2022-08-28T06:58:04.179Z,101453.84
2022-08-28T07:02:06.325Z,101450.94
2022-08-28T07:06:09.829Z,101454.06
2022-08-28T07:10:11.383Z,101457.22
2022-08-28T07:14:13.261Z,101457.50
2022-08-28T07:18:15.198Z,101455.63
2022-08-28T07:22:16.649Z,101460.06
2022-08-28T07:26:22.482Z,101458.63
2022-08-28T07:30:23.989Z,101458.75
2022-08-28T07:34:26.991Z,101457.06
2022-08-28T07:38:29.005Z,101464.75
2022-08-28T07:42:49.103Z,101465.53
2022-08-28T07:46:56.016Z,101482.41
2022-08-28T07:50:57.494Z,101488.00
2022-08-28T07:54:59.167Z,101484.25
2022-08-28T07:59:01.578Z,101494.59
2022-08-28T08:03:03.110Z,101502.34
2022-08-28T08:07:06.274Z,101502.34
2022-08-28T08:11:11.687Z,101498.50
2022-08-28T08:15:18.356Z,101507.94
2022-08-28T08:19:20.461Z,101519.16
2022-08-28T08:23:21.952Z,101516.38
2022-08-28T08:27:24.001Z,101523.25
2022-08-28T08:31:29.631Z,101524.88
2022-08-28T08:35:31.277Z,101518.38
2022-08-28T08:39:34.842Z,101525.91
2022-08-28T08:43:57.095Z,101540.00
2022-08-28T08:48:01.050Z,101538.78
2022-08-28T08:52:11.323Z,101544.03
2022-08-28T08:56:16.697Z,101542.56
2022-08-28T09:00:19.705Z,101540.53
2022-08-28T09:04:46.177Z,101543.28
2022-08-28T09:08:52.557Z,101538.75
2022-08-28T09:13:03.019Z,101538.31
2022-08-28T09:17:06.841Z,101541.88
2022-08-28T09:21:08.600Z,101546.47
2022-08-28T09:25:12.569Z,101547.22
2022-08-28T09:29:18.934Z,101557.84
2022-08-28T09:33:42.169Z,101557.47
2022-08-28T09:37:44.142Z,101553.59
2022-08-28T09:42:16.386Z,101550.13
2022-08-28T09:46:27.907Z,101556.91
2022-08-28T09:50:43.371Z,101560.59
2022-08-28T09:54:45.459Z,101556.28
2022-08-28T09:58:52.014Z,101558.13
2022-08-28T10:03:07.436Z,101557.25
2022-08-28T10:07:26.915Z,101559.44
2022-08-28T10:11:28.614Z,101563.06
2022-08-28T10:15:43.805Z,101561.00
2022-08-28T10:20:10.360Z,101564.34
2022-08-28T10:24:53.607Z,101564.50
2022-08-28T10:29:21.835Z,101566.09
2022-08-28T10:33:35.437Z,101562.81
2022-08-28T10:38:00.514Z,101566.94
2022-08-28T10:42:04.637Z,101562.28
2022-08-28T10:46:24.138Z,101568.41
2022-08-28T10:50:45.115Z,101576.03
2022-08-28T10:55:01.208Z,101576.19
2022-08-28T10:59:02.699Z,101569.91
2022-08-28T11:03:32.923Z,101572.44
2022-08-28T11:07:41.475Z,101583.34
2022-08-28T11:11:44.869Z,101576.34
2022-08-28T11:15:51.691Z,101583.59
2022-08-28T11:20:12.122Z,101597.13
2022-08-28T11:24:35.818Z,101594.97
2022-08-28T11:28:42.934Z,101597.81
2022-08-28T11:32:50.404Z,101602.56
2022-08-28T11:37:01.164Z,101599.34
2022-08-28T11:41:14.411Z,101594.88
2022-08-28T11:45:48.106Z,101597.13
2022-08-28T11:49:49.703Z,101602.50
2022-08-28T11:54:03.751Z,101590.78
2022-08-28T11:58:17.704Z,101595.22
2022-08-28T12:03:07.547Z,101591.00
2022-08-28T12:07:11.721Z,101588.28
2022-08-28T12:11:40.956Z,101590.16
2022-08-28T12:15:42.894Z,101596.81
2022-08-28T12:19:55.866Z,101585.81
2022-08-28T12:24:07.223Z,101590.47
2022-08-28T12:28:24.266Z,101588.81
2022-08-28T12:32:47.797Z,101587.34
2022-08-28T12:37:01.492Z,101581.59
2022-08-28T12:41:03.185Z,101571.50
2022-08-28T12:45:08.659Z,101574.28
2022-08-28T12:49:30.902Z,101573.66
2022-08-28T12:53:44.740Z,101580.72
2022-08-28T12:57:47.916Z,101580.13
2022-08-28T13:01:50.218Z,101578.47
2022-08-28T13:06:04.756Z,101571.19
2022-08-28T13:10:24.888Z,101572.59
2022-08-28T13:14:38.325Z,101566.75
2022-08-28T13:18:44.041Z,101559.56
2022-08-28T13:22:50.841Z,101559.13
2022-08-28T13:27:17.060Z,101562.56
2022-08-28T13:31:25.696Z,101561.09
2022-08-28T13:35:30.660Z,101553.47
2022-08-28T13:39:33.559Z,101559.00
2022-08-28T13:43:46.423Z,101546.22
2022-08-28T13:47:47.913Z,101546.13
2022-08-28T13:51:50.340Z,101543.25
2022-08-28T13:55:52.921Z,101547.78
2022-08-28T13:59:55.775Z,101547.88
2022-08-28T14:03:58.819Z,101553.13
2022-08-28T14:08:00.382Z,101545.69
2022-08-28T14:12:02.894Z,101555.50
2022-08-28T14:16:06.867Z,101551.50
2022-08-28T14:20:09.114Z,101549.09
2022-08-28T14:24:11.149Z,101544.03
2022-08-28T14:28:16.675Z,101542.78
2022-08-28T14:32:18.373Z,101556.72
2022-08-28T14:36:22.906Z,101546.28
2022-08-28T14:40:24.480Z,101538.06
2022-08-28T14:44:26.279Z,101532.53
2022-08-28T14:48:27.863Z,101535.84
2022-08-28T14:52:29.729Z,101538.56
2022-08-28T14:56:32.494Z,101539.38
2022-08-28T15:00:39.106Z,101536.44
2022-08-28T15:04:40.759Z,101536.56
2022-08-28T15:08:42.264Z,101536.81
2022-08-28T15:12:43.763Z,101531.78
2022-08-28T15:16:47.787Z,101536.91
2022-08-28T15:20:49.243Z,101544.97
2022-08-28T15:24:53.168Z,101550.91
2022-08-28T15:29:02.224Z,101544.78
2022-08-28T15:33:04.655Z,101551.09
2022-08-28T15:37:07.791Z,101548.38
2022-08-28T15:41:24.856Z,101539.66
2022-08-28T15:45:27.034Z,101541.69
2022-08-28T15:49:30.898Z,101534.38
2022-08-28T15:53:34.623Z,101534.19
2022-08-28T15:57:36.411Z,101527.78
2022-08-28T16:01:38.394Z,101534.88
2022-08-28T16:05:40.869Z,101536.13
2022-08-28T16:09:42.626Z,101528.44
2022-08-28T16:13:45.114Z,101532.81
2022-08-28T16:17:46.597Z,101538.59
2022-08-28T16:21:48.126Z,101543.84
2022-08-28T16:25:49.721Z,101537.34
2022-08-28T16:29:52.822Z,101531.09
2022-08-28T16:33:54.717Z,101534.38
2022-08-28T16:37:56.300Z,101530.16
2022-08-28T16:41:58.374Z,101533.50
2022-08-28T16:45:59.854Z,101526.22
2022-08-28T16:50:04.574Z,101526.66
2022-08-28T16:54:06.875Z,101526.13
2022-08-28T16:58:08.435Z,101517.19
2022-08-28T17:02:10.190Z,101538.66
2022-08-28T17:06:20.547Z,101535.09
2022-08-28T17:10:25.096Z,101530.97
2022-08-28T17:14:26.674Z,101528.28
2022-08-28T17:18:28.783Z,101525.13
2022-08-28T17:22:32.890Z,101528.53
2022-08-28T17:26:34.536Z,101522.13
2022-08-28T17:30:36.132Z,101520.22
2022-08-28T17:34:37.722Z,101521.34
2022-08-28T17:38:39.716Z,101523.81
2022-08-28T17:42:42.103Z,101526.75
2022-08-28T17:46:44.973Z,101516.50
2022-08-28T17:50:46.500Z,101526.94
2022-08-28T17:54:47.957Z,101526.38
2022-08-28T17:58:49.640Z,101531.44
2022-08-28T18:02:52.152Z,101527.53
2022-08-28T18:06:54.340Z,101539.63
2022-08-28T18:10:56.269Z,101543.97
2022-08-28T18:14:58.190Z,101548.75
2022-08-28T18:19:01.082Z,101554.31
2022-08-28T18:23:02.959Z,101563.53
2022-08-28T18:27:04.954Z,101566.75
2022-08-28T18:31:06.711Z,101567.75
2022-08-28T18:35:08.293Z,101564.78
2022-08-28T18:39:10.454Z,101568.75
2022-08-28T18:43:12.396Z,101562.47
2022-08-28T18:47:13.946Z,101573.00
2022-08-28T18:51:15.765Z,101563.09
2022-08-28T18:55:25.223Z,101567.88
2022-08-28T18:59:27.546Z,101571.47
2022-08-28T19:03:29.830Z,101585.16
2022-08-28T19:07:31.455Z,101571.94
2022-08-28T19:11:33.270Z,101567.00
2022-08-28T19:15:35.991Z,101571.53
2022-08-28T19:19:38.165Z,101571.66
2022-08-28T19:23:39.851Z,101566.03
2022-08-28T19:27:46.545Z,101568.84
2022-08-28T19:31:52.292Z,101562.47
2022-08-28T19:35:54.948Z,101574.97
2022-08-28T19:39:57.044Z,101576.47
2022-08-28T19:43:58.594Z,101575.13
2022-08-28T19:48:00.168Z,101584.28
2022-08-28T19:52:03.135Z,101579.78
2022-08-28T19:56:06.444Z,101581.69
2022-08-28T20:00:09.749Z,101590.69
2022-08-28T20:04:16.646Z,101580.78
2022-08-28T20:08:19.936Z,101586.69
2022-08-28T20:12:21.385Z,101575.53
2022-08-28T20:16:24.333Z,101577.44
2022-08-28T20:20:29.860Z,101584.53
2022-08-28T20:24:31.618Z,101583.03
2022-08-28T20:28:33.086Z,101590.13
2022-08-28T20:32:35.015Z,101585.06
2022-08-28T20:36:41.900Z,101596.16
2022-08-28T20:40:43.391Z,101593.97
2022-08-28T20:44:44.915Z,101600.44
2022-08-28T20:48:46.612Z,101592.03
2022-08-28T20:52:48.146Z,101599.59
2022-08-28T20:56:51.480Z,101593.03
2022-08-28T21:00:53.809Z,101599.19
2022-08-28T21:05:01.300Z,101594.19
2022-08-28T21:09:02.849Z,101600.19
2022-08-28T21:13:05.892Z,101614.00
2022-08-28T21:17:07.629Z,101615.94
2022-08-28T21:21:10.439Z,101624.56
2022-08-28T21:25:13.398Z,101629.97
2022-08-28T21:29:15.455Z,101622.28
2022-08-28T21:33:16.922Z,101624.72
2022-08-28T21:37:18.724Z,101634.56
2022-08-28T21:41:20.402Z,101638.97
2022-08-28T21:45:22.355Z,101634.31
2022-08-28T21:49:24.047Z,101628.88
2022-08-28T21:53:25.533Z,101625.63
2022-08-28T21:57:27.967Z,101618.03
2022-08-28T22:01:29.547Z,101622.75
2022-08-28T22:05:31.056Z,101625.59
2022-08-28T22:09:32.804Z,101613.47
2022-08-28T22:13:34.314Z,101612.84
2022-08-28T22:17:35.769Z,101617.09
2022-08-28T22:21:56.329Z,101619.44
2022-08-28T22:25:57.777Z,101621.97
2022-08-28T22:29:59.736Z,101613.66
2022-08-28T22:34:03.044Z,101619.06
2022-08-28T22:38:07.517Z,101620.31
2022-08-28T22:42:10.026Z,101605.38
2022-08-28T22:46:12.341Z,101627.91
2022-08-28T22:50:14.003Z,101621.69
2022-08-28T22:54:16.759Z,101633.75
2022-08-28T22:58:18.234Z,101622.91
2022-08-28T23:02:21.260Z,101621.38
2022-08-28T23:06:22.767Z,101613.69
2022-08-28T23:10:42.033Z,101612.41
2022-08-28T23:14:48.633Z,101626.09
2022-08-28T23:19:07.278Z,101622.06
2022-08-28T23:23:11.360Z,101621.63
2022-08-28T23:27:34.804Z,101615.72
2022-08-28T23:31:35.655Z,101612.63
2022-08-28T23:35:37.337Z,101615.84
2022-08-28T23:39:38.881Z,101613.72
2022-08-28T23:43:40.349Z,101605.63
2022-08-28T23:47:44.812Z,101599.69
2022-08-28T23:51:46.304Z,101599.69
2022-08-28T23:55:48.785Z,101594.66
2022-08-28T23:59:50.292Z,101607.75
